createdAt,value
2023-02-05T00:00:05.894Z,24.37
2023-02-05T00:02:33.019Z,23.43
2023-02-05T00:04:59.824Z,21.67
2023-02-05T00:07:26.683Z,22.53
2023-02-05T00:09:53.224Z,18.27
2023-02-05T00:12:19.764Z,22.20
2023-02-05T00:14:46.232Z,21.77
2023-02-05T00:17:12.759Z,20.80
2023-02-05T00:19:39.221Z,23.17
2023-02-05T00:22:05.868Z,26.57
2023-02-05T00:24:32.661Z,23.23
2023-02-05T00:26:59.276Z,21.63
2023-02-05T00:29:26.261Z,21.07
2023-02-05T00:31:53.060Z,46.93
2023-02-05T00:34:20.073Z,28.77
2023-02-05T00:36:46.556Z,32.77
2023-02-05T00:39:14.245Z,25.90
2023-02-05T00:41:40.774Z,20.90
2023-02-05T00:44:07.307Z,24.73
2023-02-05T00:46:33.762Z,29.83
2023-02-05T00:49:00.345Z,28.47
2023-02-05T00:51:26.834Z,25.23
2023-02-05T00:53:53.572Z,26.27
2023-02-05T00:56:20.127Z,26.10
2023-02-05T00:58:48.953Z,22.13
2023-02-05T01:01:16.048Z,23.10
2023-02-05T01:03:42.756Z,22.60
2023-02-05T01:06:09.383Z,21.40
2023-02-05T01:08:36.015Z,19.20
2023-02-05T01:11:07.171Z,23.43
2023-02-05T01:13:34.136Z,24.43
2023-02-05T01:16:00.765Z,22.37
2023-02-05T01:18:27.860Z,19.90
2023-02-05T01:20:54.480Z,19.73
2023-02-05T01:23:21.038Z,18.30
2023-02-05T01:25:47.945Z,26.57
2023-02-05T01:28:14.489Z,22.60
2023-02-05T01:30:41.242Z,20.00
2023-02-05T01:33:07.863Z,25.77
2023-02-05T01:35:34.882Z,28.43
2023-02-05T01:38:01.570Z,24.87
2023-02-05T01:40:28.140Z,20.03
2023-02-05T01:42:54.715Z,22.90
2023-02-05T01:45:32.628Z,23.53
2023-02-05T01:48:04.310Z,18.67
2023-02-05T01:50:38.564Z,17.30
2023-02-05T01:53:32.263Z,20.80
2023-02-05T01:56:02.253Z,27.50
2023-02-05T01:58:32.587Z,17.43
2023-02-05T02:00:59.594Z,24.40
2023-02-05T02:03:30.630Z,22.23
2023-02-05T02:05:57.542Z,21.00
2023-02-05T02:08:24.223Z,20.53
2023-02-05T02:10:52.226Z,23.30
2023-02-05T02:13:19.934Z,24.83
2023-02-05T02:15:47.390Z,26.83
2023-02-05T02:18:26.097Z,21.13
2023-02-05T02:21:28.402Z,23.67
2023-02-05T02:24:16.698Z,24.73
2023-02-05T02:27:06.142Z,24.30
2023-02-05T02:29:57.930Z,28.20
2023-02-05T02:32:40.807Z,28.40
2023-02-05T02:35:12.615Z,24.50
2023-02-05T02:37:55.904Z,28.00
2023-02-05T02:40:27.623Z,25.80
2023-02-05T02:43:03.463Z,30.97
2023-02-05T02:45:33.869Z,25.03
2023-02-05T02:48:01.086Z,25.90
2023-02-05T02:50:34.851Z,34.67
2023-02-05T02:53:27.200Z,23.83
2023-02-05T02:55:55.204Z,22.30
2023-02-05T02:58:25.751Z,29.87
2023-02-05T03:00:53.625Z,23.40
2023-02-05T03:03:21.526Z,27.53
2023-02-05T03:05:49.661Z,23.57
2023-02-05T03:08:33.524Z,32.40
2023-02-05T03:11:03.485Z,29.77
2023-02-05T03:13:30.430Z,30.00
2023-02-05T03:15:57.041Z,24.70
2023-02-05T03:18:24.710Z,29.03
2023-02-05T03:21:03.645Z,27.30
2023-02-05T03:23:30.247Z,30.70
2023-02-05T03:25:56.761Z,31.43
2023-02-05T03:28:23.522Z,32.03
2023-02-05T03:31:20.666Z,32.77
2023-02-05T03:33:55.006Z,34.27
2023-02-05T03:36:49.339Z,30.17
2023-02-05T03:40:01.978Z,38.80
2023-02-05T03:42:56.903Z,30.53
2023-02-05T03:45:53.065Z,32.50
2023-02-05T03:48:38.397Z,31.53
2023-02-05T03:51:17.741Z,29.03
2023-02-05T03:54:26.597Z,30.70
2023-02-05T03:57:02.308Z,33.53
2023-02-05T03:59:29.004Z,37.47
2023-02-05T04:01:56.049Z,36.17
2023-02-05T04:04:22.941Z,32.77
2023-02-05T04:06:51.911Z,37.73
2023-02-05T04:09:18.847Z,38.07
2023-02-05T04:11:45.610Z,56.13
2023-02-05T04:14:12.096Z,43.57
2023-02-05T04:16:39.133Z,35.10
2023-02-05T04:19:05.656Z,41.40
2023-02-05T04:21:32.276Z,37.73
2023-02-05T04:23:58.922Z,42.90
2023-02-05T04:26:25.421Z,32.77
2023-02-05T04:28:52.003Z,47.40
2023-02-05T04:31:18.587Z,49.20
2023-02-05T04:33:45.327Z,41.37
2023-02-05T04:36:12.203Z,36.87
2023-02-05T04:38:39.339Z,52.13
2023-02-05T04:41:08.030Z,44.00
2023-02-05T04:43:34.577Z,40.83
2023-02-05T04:46:08.439Z,37.30
2023-02-05T04:48:44.017Z,31.57
2023-02-05T04:51:12.821Z,49.40
2023-02-05T04:53:39.973Z,39.77
2023-02-05T04:56:14.591Z,46.30
2023-02-05T04:58:41.240Z,37.20
2023-02-05T05:01:16.610Z,42.93
2023-02-05T05:03:43.288Z,47.97
2023-02-05T05:06:10.402Z,41.13
2023-02-05T05:08:37.461Z,42.97
2023-02-05T05:11:22.149Z,47.07
2023-02-05T05:13:49.768Z,45.63
2023-02-05T05:16:16.289Z,36.50
2023-02-05T05:18:43.128Z,48.83
2023-02-05T05:21:10.047Z,62.03
2023-02-05T05:23:37.679Z,44.63
2023-02-05T05:26:06.665Z,48.43
2023-02-05T05:28:34.811Z,60.07
2023-02-05T05:31:14.409Z,51.33
2023-02-05T05:33:41.300Z,45.33
2023-02-05T05:36:08.138Z,48.23
2023-02-05T05:38:34.932Z,46.07
2023-02-05T05:41:19.903Z,55.53
2023-02-05T05:43:46.527Z,54.03
2023-02-05T05:46:22.736Z,49.77
2023-02-05T05:49:00.317Z,50.00
2023-02-05T05:51:28.216Z,60.87
2023-02-05T05:53:55.192Z,58.57
2023-02-05T05:56:21.926Z,56.97
2023-02-05T05:58:49.152Z,55.20
2023-02-05T06:01:17.509Z,69.37
2023-02-05T06:03:44.132Z,57.27
2023-02-05T06:06:10.955Z,56.17
2023-02-05T06:08:37.480Z,57.80
2023-02-05T06:11:04.089Z,46.00
2023-02-05T06:13:30.849Z,50.20
2023-02-05T06:15:57.740Z,52.53
2023-02-05T06:18:24.308Z,42.83
2023-02-05T06:20:51.074Z,66.77
2023-02-05T06:23:17.900Z,45.70
2023-02-05T06:25:44.504Z,55.93
2023-02-05T06:28:11.811Z,65.53
2023-02-05T06:30:38.557Z,43.93
2023-02-05T06:33:05.487Z,53.70
2023-02-05T06:35:32.345Z,48.47
2023-02-05T06:37:59.059Z,67.10
2023-02-05T06:40:28.049Z,52.10
2023-02-05T06:42:55.169Z,47.73
2023-02-05T06:45:22.113Z,61.40
2023-02-05T06:47:49.089Z,54.10
2023-02-05T06:50:15.803Z,56.73
2023-02-05T06:52:42.386Z,56.53
2023-02-05T06:55:09.123Z,54.63
2023-02-05T06:57:35.652Z,62.93
2023-02-05T07:00:02.208Z,50.97
2023-02-05T07:02:28.686Z,52.57
2023-02-05T07:04:55.212Z,63.43
2023-02-05T07:07:21.774Z,47.27
2023-02-05T07:09:48.786Z,59.53
2023-02-05T07:12:15.293Z,64.97
2023-02-05T07:14:42.276Z,60.40
2023-02-05T07:17:11.143Z,63.00
2023-02-05T07:19:37.762Z,60.10
2023-02-05T07:22:05.097Z,68.47
2023-02-05T07:24:31.789Z,69.97
2023-02-05T07:26:58.354Z,66.90
2023-02-05T07:29:28.012Z,58.83
2023-02-05T07:31:54.555Z,79.70
2023-02-05T07:34:21.073Z,59.60
2023-02-05T07:36:51.087Z,70.00
2023-02-05T07:39:18.379Z,66.47
2023-02-05T07:41:44.967Z,71.83
2023-02-05T07:44:11.635Z,63.43
2023-02-05T07:46:38.233Z,66.03
2023-02-05T07:49:04.807Z,71.33
2023-02-05T07:51:32.658Z,65.23
2023-02-05T07:53:59.204Z,83.63
2023-02-05T07:56:25.861Z,73.50
2023-02-05T07:58:52.426Z,75.13
2023-02-05T08:01:19.062Z,73.40
2023-02-05T08:03:45.611Z,85.13
2023-02-05T08:06:15.123Z,92.00
2023-02-05T08:08:41.760Z,83.47
2023-02-05T08:11:08.308Z,97.90
2023-02-05T08:13:35.023Z,73.47
2023-02-05T08:16:05.934Z,73.50
2023-02-05T08:18:32.577Z,74.77
2023-02-05T08:20:59.537Z,74.70
2023-02-05T08:23:26.327Z,78.17
2023-02-05T08:25:57.162Z,65.73
2023-02-05T08:28:25.013Z,71.90
2023-02-05T08:30:51.770Z,64.37
2023-02-05T08:33:18.644Z,62.13
2023-02-05T08:35:45.510Z,60.93
2023-02-05T08:38:12.101Z,60.83
2023-02-05T08:40:38.627Z,53.70
2023-02-05T08:43:05.218Z,53.17
2023-02-05T08:45:31.889Z,61.97
2023-02-05T08:47:58.539Z,50.73
2023-02-05T08:50:25.263Z,44.17
2023-02-05T08:52:51.782Z,41.17
2023-02-05T08:55:18.320Z,44.80
2023-02-05T08:57:45.219Z,41.17
2023-02-05T09:00:13.019Z,39.27
2023-02-05T09:02:42.241Z,43.30
2023-02-05T09:05:09.826Z,41.20
2023-02-05T09:07:41.322Z,37.83
2023-02-05T09:10:09.718Z,34.27
2023-02-05T09:12:36.555Z,41.17
2023-02-05T09:15:03.264Z,37.83
2023-02-05T09:17:29.856Z,30.30
2023-02-05T09:19:56.649Z,36.70
2023-02-05T09:22:23.285Z,33.70
2023-02-05T09:24:49.874Z,42.67
2023-02-05T09:27:16.350Z,32.33
2023-02-05T09:29:42.909Z,32.10
2023-02-05T09:32:09.626Z,35.90
2023-02-05T09:34:36.189Z,32.00
2023-02-05T09:37:02.958Z,32.03
2023-02-05T09:40:17.313Z,27.63
2023-02-05T09:42:33.042Z,20.90
2023-02-05T09:45:38.162Z,28.47
2023-02-05T09:48:08.746Z,18.80
2023-02-05T09:50:36.596Z,22.27
2023-02-05T09:53:06.577Z,8.53
2023-02-05T09:55:36.626Z,9.03
2023-02-05T09:58:07.275Z,7.20
2023-02-05T10:01:01.780Z,10.60
2023-02-05T10:03:34.320Z,5.80
2023-02-05T10:06:03.934Z,5.13
2023-02-05T10:08:41.010Z,4.50
2023-02-05T10:11:18.508Z,3.47
2023-02-05T10:13:47.510Z,3.13
2023-02-05T10:16:20.025Z,4.50
2023-02-05T10:19:13.421Z,2.37
2023-02-05T10:22:00.656Z,3.20
2023-02-05T10:24:49.035Z,3.90
2023-02-05T10:27:26.857Z,1.83
2023-02-05T10:30:04.054Z,2.37
2023-02-05T10:32:52.955Z,3.83
2023-02-05T10:35:33.347Z,8.90
2023-02-05T10:38:01.168Z,2.80
2023-02-05T10:40:31.252Z,6.80
2023-02-05T10:43:05.649Z,2.27
2023-02-05T10:45:36.617Z,8.60
2023-02-05T10:48:09.520Z,4.60
2023-02-05T10:51:01.687Z,1.90
2023-02-05T10:53:29.068Z,2.20
2023-02-05T10:55:57.601Z,3.83
2023-02-05T10:58:37.030Z,2.50
2023-02-05T11:01:05.467Z,2.97
2023-02-05T11:03:33.202Z,5.27
2023-02-05T11:05:59.691Z,2.67
2023-02-05T11:08:45.160Z,2.43
2023-02-05T11:11:31.720Z,3.53
2023-02-05T11:14:06.402Z,2.53
2023-02-05T11:16:41.623Z,1.70
2023-02-05T11:19:24.067Z,3.90
2023-02-05T11:21:56.722Z,3.97
2023-02-05T11:24:33.895Z,2.53
2023-02-05T11:27:33.800Z,2.00
2023-02-05T11:30:28.639Z,1.80
2023-02-05T11:33:16.413Z,1.83
2023-02-05T11:35:56.271Z,2.80
2023-02-05T11:38:35.076Z,2.70
2023-02-05T11:41:05.708Z,4.20
2023-02-05T11:43:38.230Z,2.47
2023-02-05T11:46:08.518Z,2.60
2023-02-05T11:48:57.414Z,2.40
2023-02-05T11:51:36.171Z,1.60
2023-02-05T11:54:10.537Z,2.00
2023-02-05T11:56:37.039Z,3.40
2023-02-05T11:59:18.475Z,3.07
2023-02-05T12:01:45.797Z,1.80
2023-02-05T12:04:12.487Z,4.17
2023-02-05T12:06:44.927Z,1.87
2023-02-05T12:09:14.736Z,4.40
2023-02-05T12:12:06.653Z,2.80
2023-02-05T12:14:40.771Z,2.73
2023-02-05T12:17:22.554Z,2.30
2023-02-05T12:19:55.102Z,12.70
2023-02-05T12:23:00.095Z,6.50
2023-02-05T12:25:30.137Z,3.43
2023-02-05T12:28:30.271Z,3.77
2023-02-05T12:31:22.269Z,2.60
2023-02-05T12:34:07.704Z,4.10
2023-02-05T12:36:47.114Z,3.33
2023-02-05T12:39:36.097Z,2.53
2023-02-05T12:42:24.565Z,3.67
2023-02-05T12:45:06.402Z,2.30
2023-02-05T12:47:45.021Z,5.13
2023-02-05T12:50:45.968Z,8.13
2023-02-05T12:53:28.216Z,4.00
2023-02-05T12:56:03.990Z,6.50
2023-02-05T12:58:37.661Z,6.73
2023-02-05T13:01:09.059Z,10.17
2023-02-05T13:03:39.129Z,6.30
2023-02-05T13:06:26.894Z,6.37
2023-02-05T13:08:58.659Z,7.60
2023-02-05T13:11:39.529Z,7.13
2023-02-05T13:14:14.186Z,9.60
2023-02-05T13:16:56.461Z,9.30
2023-02-05T13:19:30.916Z,10.73
2023-02-05T13:22:18.004Z,9.43
2023-02-05T13:25:11.397Z,10.03
2023-02-05T13:28:02.129Z,11.17
2023-02-05T13:30:35.309Z,11.83
2023-02-05T13:33:05.448Z,9.50
2023-02-05T13:35:40.211Z,11.93
2023-02-05T13:38:35.553Z,11.30
2023-02-05T13:41:36.953Z,13.60
2023-02-05T13:44:31.372Z,13.03
2023-02-05T13:47:18.187Z,8.53
2023-02-05T13:49:59.153Z,11.40
2023-02-05T13:52:53.269Z,9.20
2023-02-05T13:55:24.973Z,9.93
2023-02-05T13:58:11.870Z,8.10
2023-02-05T14:00:41.324Z,7.63
2023-02-05T14:03:09.754Z,9.73
2023-02-05T14:05:38.392Z,10.40
2023-02-05T14:08:05.897Z,10.67
2023-02-05T14:10:40.151Z,9.53
2023-02-05T14:13:34.260Z,11.07
2023-02-05T14:16:26.099Z,11.23
2023-02-05T14:19:02.131Z,10.70
2023-02-05T14:21:31.894Z,11.53
2023-02-05T14:24:35.858Z,11.23
2023-02-05T14:27:02.414Z,11.17
2023-02-05T14:29:47.102Z,11.10
2023-02-05T14:32:39.091Z,18.83
2023-02-05T14:35:05.724Z,15.57
2023-02-05T14:37:40.968Z,10.50
2023-02-05T14:40:23.041Z,12.77
2023-02-05T14:42:57.098Z,12.50
2023-02-05T14:45:29.058Z,14.60
2023-02-05T14:47:56.498Z,13.60
2023-02-05T14:50:28.773Z,10.73
2023-02-05T14:53:03.200Z,8.80
2023-02-05T14:55:36.283Z,9.87
2023-02-05T14:58:05.971Z,12.63
2023-02-05T15:00:32.610Z,12.70
2023-02-05T15:03:05.328Z,9.20
2023-02-05T15:05:41.232Z,8.10
2023-02-05T15:08:36.505Z,9.23
2023-02-05T15:11:21.960Z,8.03
2023-02-05T15:14:19.696Z,8.77
2023-02-05T15:16:47.290Z,10.27
2023-02-05T15:19:15.656Z,8.57
2023-02-05T15:21:51.185Z,11.40
2023-02-05T15:24:24.914Z,11.33
2023-02-05T15:27:07.686Z,8.73
2023-02-05T15:29:38.249Z,6.40
2023-02-05T15:32:19.437Z,10.37
2023-02-05T15:34:52.651Z,8.37
2023-02-05T15:37:25.879Z,7.10
2023-02-05T15:40:11.250Z,8.60
2023-02-05T15:42:39.965Z,9.00
2023-02-05T15:45:44.818Z,8.60
2023-02-05T15:48:12.959Z,7.50
2023-02-05T15:50:47.721Z,17.07
2023-02-05T15:53:33.143Z,10.03
2023-02-05T15:56:12.793Z,9.43
2023-02-05T15:58:46.183Z,13.47
2023-02-05T16:01:22.534Z,9.10
2023-02-05T16:03:49.302Z,9.03
2023-02-05T16:06:20.739Z,10.23
2023-02-05T16:08:48.657Z,7.90
2023-02-05T16:11:33.064Z,15.03
2023-02-05T16:14:10.653Z,10.63
2023-02-05T16:16:40.470Z,11.40
2023-02-05T16:19:15.150Z,11.37
2023-02-05T16:21:49.376Z,11.80
2023-02-05T16:24:26.663Z,12.10
2023-02-05T16:27:01.057Z,11.70
2023-02-05T16:29:46.118Z,8.73
2023-02-05T16:32:42.392Z,8.40
2023-02-05T16:35:40.771Z,15.40
2023-02-05T16:38:14.698Z,19.47
2023-02-05T16:40:43.716Z,14.47
2023-02-05T16:43:30.832Z,11.23
2023-02-05T16:46:06.732Z,5.23
2023-02-05T16:48:36.940Z,14.57
2023-02-05T16:51:04.399Z,10.77
2023-02-05T16:53:33.714Z,11.40
2023-02-05T16:56:22.205Z,9.20
2023-02-05T16:58:51.925Z,19.60
2023-02-05T17:01:27.840Z,16.70
2023-02-05T17:03:55.256Z,19.83
2023-02-05T17:06:22.469Z,13.93
2023-02-05T17:08:55.176Z,13.50
2023-02-05T17:11:48.080Z,12.03
2023-02-05T17:14:29.939Z,10.43
2023-02-05T17:17:00.995Z,17.87
2023-02-05T17:19:32.463Z,13.40
2023-02-05T17:22:14.479Z,10.93
2023-02-05T17:24:47.955Z,18.40
2023-02-05T17:27:33.301Z,15.10
2023-02-05T17:30:00.915Z,11.87
2023-02-05T17:32:28.461Z,13.70
2023-02-05T17:34:55.305Z,11.23
2023-02-05T17:37:21.943Z,14.30
2023-02-05T17:39:49.835Z,10.97
2023-02-05T17:42:22.144Z,16.23
2023-02-05T17:44:49.448Z,18.13
2023-02-05T17:47:16.511Z,11.60
2023-02-05T17:49:43.352Z,11.10
2023-02-05T17:52:10.389Z,15.57
2023-02-05T17:54:36.939Z,17.90
2023-02-05T17:57:22.268Z,16.60
2023-02-05T17:59:49.288Z,19.80
2023-02-05T18:02:16.621Z,18.50
2023-02-05T18:04:44.818Z,9.83
2023-02-05T18:07:58.051Z,14.13
2023-02-05T18:10:28.197Z,13.43
2023-02-05T18:12:56.085Z,18.00
2023-02-05T18:15:23.857Z,16.60
2023-02-05T18:17:50.879Z,11.33
2023-02-05T18:20:19.672Z,19.67
2023-02-05T18:22:47.682Z,18.30
2023-02-05T18:25:14.306Z,18.27
2023-02-05T18:27:40.876Z,20.57
2023-02-05T18:30:08.379Z,16.20
2023-02-05T18:32:34.912Z,11.87
2023-02-05T18:35:01.457Z,12.70
2023-02-05T18:37:28.058Z,14.80
2023-02-05T18:39:54.804Z,20.13
2023-02-05T18:42:22.321Z,9.43
2023-02-05T18:44:49.227Z,24.90
2023-02-05T18:47:15.798Z,59.30
2023-02-05T18:49:42.405Z,15.00
2023-02-05T18:52:10.252Z,20.27
2023-02-05T18:54:36.848Z,22.47
2023-02-05T18:57:03.605Z,24.63
2023-02-05T18:59:30.141Z,20.07
2023-02-05T19:01:56.894Z,13.90
2023-02-05T19:04:24.795Z,22.70
2023-02-05T19:06:54.928Z,16.80
2023-02-05T19:09:23.002Z,13.43
2023-02-05T19:11:50.143Z,21.07
2023-02-05T19:14:19.243Z,14.17
2023-02-05T19:16:47.180Z,13.50
2023-02-05T19:19:20.165Z,18.90
2023-02-05T19:21:49.032Z,16.47
2023-02-05T19:24:17.357Z,14.13
2023-02-05T19:26:44.206Z,19.17
2023-02-05T19:29:16.381Z,17.40
2023-02-05T19:31:44.362Z,13.80
2023-02-05T19:34:11.688Z,16.53
2023-02-05T19:36:38.901Z,14.63
2023-02-05T19:39:07.371Z,12.77
2023-02-05T19:41:35.494Z,21.73
2023-02-05T19:44:04.722Z,17.10
2023-02-05T19:46:34.998Z,17.10
2023-02-05T19:49:07.111Z,13.27
2023-02-05T19:51:34.167Z,12.90
2023-02-05T19:54:03.121Z,13.30
2023-02-05T19:56:30.519Z,15.20
2023-02-05T19:58:57.163Z,13.20
2023-02-05T20:01:26.707Z,17.87
2023-02-05T20:03:58.568Z,14.20
2023-02-05T20:06:28.072Z,15.37
2023-02-05T20:08:55.040Z,18.10
2023-02-05T20:11:21.663Z,11.47
2023-02-05T20:13:48.407Z,14.33
2023-02-05T20:16:18.522Z,13.70
2023-02-05T20:18:45.535Z,19.23
2023-02-05T20:21:14.533Z,10.87
2023-02-05T20:23:42.697Z,15.93
2023-02-05T20:26:10.497Z,10.43
2023-02-05T20:29:00.631Z,13.50
2023-02-05T20:31:35.396Z,13.93
2023-02-05T20:34:09.432Z,9.60
2023-02-05T20:36:36.840Z,14.13
2023-02-05T20:39:06.220Z,12.20
2023-02-05T20:41:33.680Z,16.13
2023-02-05T20:44:03.412Z,19.83
2023-02-05T20:46:30.960Z,17.27
2023-02-05T20:48:58.855Z,18.73
2023-02-05T20:51:25.386Z,23.47
2023-02-05T20:53:56.998Z,14.13
2023-02-05T20:56:24.894Z,14.00
2023-02-05T20:58:51.957Z,18.67
2023-02-05T21:01:20.833Z,17.40
2023-02-05T21:03:50.354Z,20.23
2023-02-05T21:06:18.377Z,18.03
2023-02-05T21:08:46.557Z,11.87
2023-02-05T21:11:16.573Z,13.37
2023-02-05T21:13:44.980Z,10.73
2023-02-05T21:16:18.003Z,17.90
2023-02-05T21:18:47.600Z,15.40
2023-02-05T21:21:24.416Z,9.70
2023-02-05T21:23:59.391Z,15.63
2023-02-05T21:26:31.340Z,16.37
2023-02-05T21:29:04.917Z,11.87
2023-02-05T21:31:35.288Z,15.30
2023-02-05T21:34:02.619Z,14.63
2023-02-05T21:36:29.687Z,15.63
2023-02-05T21:38:56.708Z,14.23
2023-02-05T21:41:23.489Z,11.80
2023-02-05T21:43:57.547Z,21.90
2023-02-05T21:46:25.490Z,17.33
2023-02-05T21:48:54.304Z,13.63
2023-02-05T21:51:24.446Z,17.50
2023-02-05T21:53:57.094Z,17.20
2023-02-05T21:56:25.430Z,14.87
2023-02-05T21:58:51.963Z,9.23
2023-02-05T22:01:21.399Z,16.30
2023-02-05T22:03:52.870Z,16.33
2023-02-05T22:06:20.214Z,24.00
2023-02-05T22:08:48.227Z,21.60
2023-02-05T22:11:15.081Z,13.43
2023-02-05T22:13:43.410Z,12.07
2023-02-05T22:16:11.742Z,29.83
2023-02-05T22:18:38.413Z,9.60
2023-02-05T22:21:06.843Z,15.17
2023-02-05T22:23:33.388Z,14.30
2023-02-05T22:26:00.078Z,19.20
2023-02-05T22:28:26.775Z,24.70
2023-02-05T22:31:06.712Z,16.17
2023-02-05T22:33:36.669Z,10.87
2023-02-05T22:36:03.844Z,15.33
2023-02-05T22:38:32.174Z,22.00
2023-02-05T22:40:59.418Z,16.80
2023-02-05T22:43:27.354Z,17.33
2023-02-05T22:45:53.849Z,17.80
2023-02-05T22:48:20.439Z,19.70
2023-02-05T22:50:47.450Z,22.30
2023-02-05T22:53:13.991Z,14.47
2023-02-05T22:55:40.510Z,16.00
2023-02-05T22:58:07.400Z,19.30
2023-02-05T23:00:34.280Z,16.23
2023-02-05T23:03:01.008Z,16.00
2023-02-05T23:05:31.403Z,20.10
2023-02-05T23:07:58.551Z,16.03
2023-02-05T23:10:25.047Z,15.83
2023-02-05T23:12:51.527Z,12.27
2023-02-05T23:15:18.151Z,17.30
2023-02-05T23:17:44.648Z,10.43
2023-02-05T23:20:11.714Z,11.40
2023-02-05T23:22:38.238Z,17.30
2023-02-05T23:25:05.611Z,19.10
2023-02-05T23:27:33.450Z,17.37
2023-02-05T23:30:00.213Z,21.33
2023-02-05T23:32:26.828Z,16.83
2023-02-05T23:34:53.413Z,13.30
2023-02-05T23:37:20.099Z,16.87
2023-02-05T23:39:46.621Z,14.47
2023-02-05T23:42:13.136Z,11.40
2023-02-05T23:44:39.633Z,23.23
2023-02-05T23:47:06.131Z,14.00
2023-02-05T23:49:32.606Z,7.33
2023-02-05T23:51:59.177Z,11.00
2023-02-05T23:54:26.290Z,20.87
2023-02-05T23:56:52.938Z,19.57
2023-02-05T23:59:19.492Z,24.40
